createdAt,value
2022-12-24T00:00:39.419Z,10.70
2022-12-24T00:03:05.975Z,10.68
2022-12-24T00:05:32.430Z,10.61
2022-12-24T00:07:58.871Z,10.55
2022-12-24T00:10:25.239Z,10.53
2022-12-24T00:12:51.619Z,10.59
2022-12-24T00:15:19.205Z,10.52
2022-12-24T00:17:45.684Z,10.74
2022-12-24T00:20:12.283Z,10.62
2022-12-24T00:22:39.383Z,10.68
2022-12-24T00:25:06.423Z,10.55
2022-12-24T00:27:32.816Z,10.69
2022-12-24T00:29:59.802Z,10.51
2022-12-24T00:32:26.198Z,10.51
2022-12-24T00:34:52.623Z,10.42
2022-12-24T00:37:19.467Z,10.34
2022-12-24T00:39:45.838Z,10.19
2022-12-24T00:42:12.457Z,10.19
2022-12-24T00:44:38.838Z,10.18
2022-12-24T00:47:10.030Z,10.08
2022-12-24T00:49:38.474Z,10.07
2022-12-24T00:52:05.015Z,10.08
2022-12-24T00:54:31.576Z,10.15
2022-12-24T00:56:57.985Z,10.02
2022-12-24T00:59:25.229Z,10.01
2022-12-24T01:01:51.710Z,10.02
2022-12-24T01:04:36.671Z,9.96
2022-12-24T01:07:03.097Z,9.89
2022-12-24T01:09:31.297Z,9.91
2022-12-24T01:11:57.703Z,9.95
2022-12-24T01:14:24.161Z,9.73
2022-12-24T01:16:50.583Z,10.01
2022-12-24T01:19:17.324Z,9.92
2022-12-24T01:21:43.716Z,9.98
2022-12-24T01:24:16.630Z,10.00
2022-12-24T01:26:43.745Z,10.04
2022-12-24T01:29:10.245Z,10.01
2022-12-24T01:31:36.844Z,9.90
2022-12-24T01:34:03.252Z,9.94
2022-12-24T01:36:30.068Z,10.07
2022-12-24T01:38:56.648Z,10.03
2022-12-24T01:41:42.328Z,10.05
2022-12-24T01:44:20.679Z,10.09
2022-12-24T01:46:49.914Z,10.20
2022-12-24T01:49:17.254Z,10.13
2022-12-24T01:51:56.054Z,10.22
2022-12-24T01:54:36.295Z,10.15
2022-12-24T01:57:14.041Z,10.12
2022-12-24T01:59:44.156Z,10.17
2022-12-24T02:02:11.064Z,10.18
2022-12-24T02:04:42.770Z,10.13
2022-12-24T02:07:09.202Z,10.13
2022-12-24T02:09:39.203Z,10.14
2022-12-24T02:12:06.322Z,10.08
2022-12-24T02:14:33.814Z,10.13
2022-12-24T02:17:04.233Z,10.17
2022-12-24T02:20:06.330Z,10.27
2022-12-24T02:22:42.292Z,10.14
2022-12-24T02:25:32.915Z,10.20
2022-12-24T02:28:18.438Z,10.13
2022-12-24T02:30:47.836Z,10.04
2022-12-24T02:33:34.727Z,10.02
2022-12-24T02:36:18.105Z,9.98
2022-12-24T02:38:49.891Z,9.92
2022-12-24T02:41:50.098Z,9.92
2022-12-24T02:44:20.110Z,9.89
2022-12-24T02:46:47.813Z,9.76
2022-12-24T02:49:14.326Z,9.69
2022-12-24T02:51:40.721Z,9.70
2022-12-24T02:54:07.639Z,9.64
2022-12-24T02:57:11.944Z,9.70
2022-12-24T03:00:00.251Z,9.88
2022-12-24T03:02:41.090Z,9.68
2022-12-24T03:05:13.401Z,9.68
2022-12-24T03:08:08.684Z,9.74
2022-12-24T03:10:54.868Z,9.68
2022-12-24T03:13:22.494Z,9.82
2022-12-24T03:16:01.325Z,9.62
2022-12-24T03:18:30.650Z,9.76
2022-12-24T03:21:18.035Z,9.67
2022-12-24T03:23:44.720Z,9.53
2022-12-24T03:26:14.576Z,9.61
2022-12-24T03:28:41.712Z,9.44
2022-12-24T03:31:09.372Z,9.52
2022-12-24T03:33:36.069Z,9.53
2022-12-24T03:36:03.658Z,9.52
2022-12-24T03:38:30.100Z,9.55
2022-12-24T03:40:56.868Z,9.49
2022-12-24T03:43:23.570Z,9.47
2022-12-24T03:45:50.034Z,9.41
2022-12-24T03:48:16.476Z,9.34
2022-12-24T03:50:42.929Z,9.54
2022-12-24T03:53:09.302Z,9.50
2022-12-24T03:55:35.681Z,9.47
2022-12-24T03:58:02.441Z,9.54
2022-12-24T04:00:28.951Z,9.54
2022-12-24T04:02:55.872Z,9.52
2022-12-24T04:05:22.583Z,9.49
2022-12-24T04:07:48.977Z,9.56
2022-12-24T04:10:16.666Z,9.47
2022-12-24T04:12:43.205Z,9.48
2022-12-24T04:15:10.922Z,9.42
2022-12-24T04:17:37.367Z,9.39
2022-12-24T04:20:04.497Z,9.33
2022-12-24T04:22:31.005Z,9.34
2022-12-24T04:24:57.388Z,9.24
2022-12-24T04:27:29.953Z,9.17
2022-12-24T04:29:56.959Z,9.10
2022-12-24T04:32:23.336Z,9.01
2022-12-24T04:34:49.727Z,8.86
2022-12-24T04:37:16.146Z,8.79
2022-12-24T04:39:42.529Z,8.77
2022-12-24T04:42:08.903Z,8.71
2022-12-24T04:44:35.330Z,8.64
2022-12-24T04:47:01.713Z,8.55
2022-12-24T04:49:28.101Z,8.47
2022-12-24T04:51:54.472Z,8.48
2022-12-24T04:54:20.976Z,8.49
2022-12-24T04:56:47.366Z,8.40
2022-12-24T04:59:13.764Z,8.43
2022-12-24T05:01:40.288Z,8.40
2022-12-24T05:04:12.494Z,8.37
2022-12-24T05:06:38.883Z,8.37
2022-12-24T05:09:05.702Z,8.36
2022-12-24T05:11:32.089Z,8.33
2022-12-24T05:13:58.463Z,8.36
2022-12-24T05:16:25.232Z,8.33
2022-12-24T05:18:52.637Z,8.38
2022-12-24T05:21:24.849Z,8.37
2022-12-24T05:24:10.246Z,8.34
2022-12-24T05:26:51.478Z,8.33
2022-12-24T05:29:18.120Z,8.28
2022-12-24T05:31:45.520Z,8.20
2022-12-24T05:34:15.450Z,8.41
2022-12-24T05:36:42.480Z,8.29
2022-12-24T05:39:15.621Z,8.32
2022-12-24T05:41:42.725Z,8.40
2022-12-24T05:44:09.133Z,8.36
2022-12-24T05:46:35.717Z,8.36
2022-12-24T05:49:02.180Z,8.52
2022-12-24T05:51:28.573Z,8.44
2022-12-24T05:53:54.979Z,8.46
2022-12-24T05:56:23.704Z,8.42
2022-12-24T05:58:50.890Z,8.39
2022-12-24T06:01:18.934Z,8.42
2022-12-24T06:03:45.635Z,8.37
2022-12-24T06:06:15.428Z,8.40
2022-12-24T06:08:42.437Z,8.46
2022-12-24T06:11:12.265Z,8.35
2022-12-24T06:13:39.875Z,8.45
2022-12-24T06:16:08.033Z,8.35
2022-12-24T06:18:36.053Z,8.51
2022-12-24T06:21:03.686Z,8.51
2022-12-24T06:23:31.960Z,8.57
2022-12-24T06:26:01.023Z,8.43
2022-12-24T06:28:37.141Z,8.43
2022-12-24T06:31:04.789Z,8.61
2022-12-24T06:33:32.447Z,8.56
2022-12-24T06:35:59.228Z,8.63
2022-12-24T06:38:25.822Z,8.69
2022-12-24T06:40:53.282Z,8.63
2022-12-24T06:43:20.566Z,8.63
2022-12-24T06:45:48.456Z,8.48
2022-12-24T06:48:15.601Z,8.53
2022-12-24T06:50:42.573Z,8.58
2022-12-24T06:53:09.300Z,8.53
2022-12-24T06:55:35.733Z,8.56
2022-12-24T06:58:03.554Z,8.52
2022-12-24T07:00:29.971Z,8.52
2022-12-24T07:02:56.441Z,8.52
2022-12-24T07:05:22.883Z,8.51
2022-12-24T07:07:49.273Z,8.48
2022-12-24T07:10:17.347Z,8.42
2022-12-24T07:12:44.071Z,8.34
2022-12-24T07:15:12.387Z,8.32
2022-12-24T07:17:38.975Z,8.34
2022-12-24T07:20:07.082Z,8.27
2022-12-24T07:22:34.621Z,8.24
2022-12-24T07:25:01.025Z,8.24
2022-12-24T07:27:27.685Z,8.07
2022-12-24T07:29:54.104Z,8.26
2022-12-24T07:32:20.669Z,8.31
2022-12-24T07:34:47.074Z,8.34
2022-12-24T07:37:13.723Z,8.35
2022-12-24T07:39:40.111Z,8.38
2022-12-24T07:42:08.205Z,8.32
2022-12-24T07:44:35.116Z,8.40
2022-12-24T07:47:01.595Z,8.43
2022-12-24T07:49:28.073Z,8.42
2022-12-24T07:51:54.459Z,8.42
2022-12-24T07:54:21.250Z,8.47
2022-12-24T07:56:47.631Z,8.51
2022-12-24T07:59:14.800Z,8.55
2022-12-24T08:01:41.628Z,8.61
2022-12-24T08:04:08.309Z,8.61
2022-12-24T08:06:35.380Z,8.63
2022-12-24T08:09:01.818Z,8.64
2022-12-24T08:11:28.293Z,8.65
2022-12-24T08:13:55.061Z,8.66
2022-12-24T08:16:22.316Z,8.72
2022-12-24T08:18:48.773Z,8.68
2022-12-24T08:21:15.302Z,8.69
2022-12-24T08:23:41.707Z,8.72
2022-12-24T08:26:09.897Z,8.71
2022-12-24T08:28:36.473Z,8.74
2022-12-24T08:31:03.322Z,8.80
2022-12-24T08:33:29.902Z,8.79
2022-12-24T08:35:56.907Z,8.84
2022-12-24T08:38:23.683Z,8.96
2022-12-24T08:40:52.387Z,9.02
2022-12-24T08:43:22.398Z,9.05
2022-12-24T08:45:51.674Z,9.21
2022-12-24T08:48:18.186Z,9.23
2022-12-24T08:50:45.278Z,9.28
2022-12-24T08:53:12.832Z,9.34
2022-12-24T08:55:39.622Z,9.43
2022-12-24T08:58:06.165Z,9.35
2022-12-24T09:00:32.603Z,9.37
2022-12-24T09:02:59.366Z,9.45
2022-12-24T09:05:26.496Z,9.35
2022-12-24T09:07:53.099Z,9.37
2022-12-24T09:10:19.544Z,9.48
2022-12-24T09:12:46.381Z,9.37
2022-12-24T09:15:14.317Z,9.49
2022-12-24T09:17:41.231Z,9.64
2022-12-24T09:20:08.829Z,9.72
2022-12-24T09:22:37.576Z,9.62
2022-12-24T09:25:06.209Z,9.52
2022-12-24T09:27:32.665Z,9.50
2022-12-24T09:29:59.024Z,9.67
2022-12-24T09:32:25.462Z,9.68
2022-12-24T09:34:52.682Z,9.65
2022-12-24T09:37:19.426Z,9.74
2022-12-24T09:39:45.813Z,9.82
2022-12-24T09:42:42.739Z,9.80
2022-12-24T09:45:44.030Z,9.81
2022-12-24T09:48:18.055Z,9.78
2022-12-24T09:50:56.780Z,9.74
2022-12-24T09:53:45.831Z,9.61
2022-12-24T09:56:22.811Z,9.82
2022-12-24T09:59:02.969Z,9.97
2022-12-24T10:01:31.438Z,9.77
2022-12-24T10:04:03.449Z,9.88
2022-12-24T10:06:54.429Z,9.70
2022-12-24T10:09:48.355Z,9.61
2022-12-24T10:12:33.383Z,9.54
2022-12-24T10:15:34.157Z,9.54
2022-12-24T10:18:06.382Z,9.67
2022-12-24T10:20:47.592Z,9.58
2022-12-24T10:23:37.030Z,9.65
2022-12-24T10:26:25.865Z,9.65
2022-12-24T10:29:05.375Z,9.86
2022-12-24T10:31:35.186Z,9.96
2022-12-24T10:34:07.048Z,10.01
2022-12-24T10:36:33.429Z,9.90
2022-12-24T10:38:59.986Z,10.06
2022-12-24T10:41:28.819Z,10.16
2022-12-24T10:43:56.057Z,10.18
2022-12-24T10:46:26.944Z,10.27
2022-12-24T10:49:03.285Z,10.18
2022-12-24T10:51:42.157Z,10.43
2022-12-24T10:54:17.292Z,10.37
2022-12-24T10:56:52.406Z,10.13
2022-12-24T10:59:42.368Z,10.28
2022-12-24T11:02:33.840Z,10.10
2022-12-24T11:05:02.476Z,10.16
2022-12-24T11:07:30.942Z,10.25
2022-12-24T11:10:03.343Z,10.19
2022-12-24T11:12:33.530Z,10.15
2022-12-24T11:15:07.927Z,10.19
2022-12-24T11:17:35.074Z,10.29
2022-12-24T11:20:03.365Z,10.42
2022-12-24T11:22:32.465Z,10.35
2022-12-24T11:25:24.940Z,10.26
2022-12-24T11:27:51.750Z,10.27
2022-12-24T11:30:23.098Z,10.35
2022-12-24T11:33:10.615Z,10.35
2022-12-24T11:35:45.745Z,10.34
2022-12-24T11:38:21.280Z,10.39
2022-12-24T11:40:50.980Z,10.41
2022-12-24T11:43:21.150Z,10.54
2022-12-24T11:45:53.138Z,10.47
2022-12-24T11:48:31.209Z,10.47
2022-12-24T11:51:03.333Z,10.53
2022-12-24T11:53:47.040Z,10.49
2022-12-24T11:56:39.035Z,10.63
2022-12-24T11:59:19.220Z,10.44
2022-12-24T12:02:00.209Z,10.44
2022-12-24T12:04:33.302Z,10.50
2022-12-24T12:07:14.694Z,10.57
2022-12-24T12:09:47.844Z,10.52
2022-12-24T12:12:17.901Z,10.69
2022-12-24T12:15:08.915Z,10.56
2022-12-24T12:17:50.450Z,10.58
2022-12-24T12:20:27.341Z,10.59
2022-12-24T12:23:01.225Z,10.66
2022-12-24T12:25:55.364Z,10.54
2022-12-24T12:28:28.891Z,10.59
2022-12-24T12:31:16.057Z,10.56
2022-12-24T12:33:49.747Z,10.63
2022-12-24T12:36:21.168Z,10.64
2022-12-24T12:38:48.936Z,10.53
2022-12-24T12:42:09.138Z,10.45
2022-12-24T12:45:01.445Z,10.63
2022-12-24T12:47:36.819Z,10.50
2022-12-24T12:50:48.660Z,10.37
2022-12-24T12:53:35.496Z,10.55
2022-12-24T12:56:05.844Z,10.58
2022-12-24T12:58:37.713Z,10.53
2022-12-24T13:01:20.442Z,10.49
2022-12-24T13:04:16.337Z,10.56
2022-12-24T13:07:07.752Z,10.34
2022-12-24T13:09:55.973Z,10.16
2022-12-24T13:12:48.324Z,10.06
2022-12-24T13:15:14.628Z,10.02
2022-12-24T13:18:18.634Z,9.78
2022-12-24T13:20:50.374Z,9.85
2022-12-24T13:23:25.959Z,9.87
2022-12-24T13:25:55.076Z,9.86
2022-12-24T13:28:24.510Z,10.04
2022-12-24T13:31:19.863Z,10.15
2022-12-24T13:33:54.360Z,10.11
2022-12-24T13:36:21.378Z,10.04
2022-12-24T13:38:50.575Z,10.14
2022-12-24T13:41:38.808Z,10.14
2022-12-24T13:44:13.505Z,10.20
2022-12-24T13:46:45.947Z,10.13
2022-12-24T13:49:25.596Z,10.25
2022-12-24T13:52:04.452Z,10.22
2022-12-24T13:54:31.046Z,10.25
2022-12-24T13:56:59.641Z,10.23
2022-12-24T13:59:41.527Z,10.29
2022-12-24T14:02:21.300Z,10.25
2022-12-24T14:04:50.667Z,10.30
2022-12-24T14:07:19.845Z,10.20
2022-12-24T14:09:50.388Z,10.28
2022-12-24T14:12:47.720Z,10.25
2022-12-24T14:15:48.334Z,10.24
2022-12-24T14:18:24.553Z,10.23
2022-12-24T14:20:53.982Z,10.15
2022-12-24T14:23:42.323Z,10.13
2022-12-24T14:26:15.521Z,10.09
2022-12-24T14:28:47.053Z,10.03
2022-12-24T14:31:18.435Z,9.87
2022-12-24T14:33:46.262Z,9.59
2022-12-24T14:36:20.807Z,9.59
2022-12-24T14:38:48.140Z,9.32
2022-12-24T14:41:53.164Z,9.40
2022-12-24T14:44:41.243Z,9.27
2022-12-24T14:47:37.795Z,9.35
2022-12-24T14:50:17.600Z,9.34
2022-12-24T14:53:25.198Z,9.29
2022-12-24T14:55:52.139Z,9.28
2022-12-24T14:58:31.373Z,9.21
2022-12-24T15:01:22.305Z,9.21
2022-12-24T15:04:02.357Z,9.30
2022-12-24T15:06:33.391Z,9.22
2022-12-24T15:09:00.379Z,9.18
2022-12-24T15:11:27.196Z,9.13
2022-12-24T15:13:59.541Z,9.19
2022-12-24T15:16:35.622Z,9.25
2022-12-24T15:19:05.921Z,9.20
2022-12-24T15:21:42.568Z,9.14
2022-12-24T15:24:32.482Z,9.13
2022-12-24T15:27:02.979Z,9.12
2022-12-24T15:29:32.464Z,9.08
2022-12-24T15:32:01.506Z,9.03
2022-12-24T15:34:37.934Z,8.98
2022-12-24T15:37:29.435Z,9.01
2022-12-24T15:40:00.195Z,8.96
2022-12-24T15:45:13.062Z,8.86
2022-12-24T15:47:53.941Z,8.79
2022-12-24T15:50:31.481Z,8.80
2022-12-24T15:53:19.953Z,8.71
2022-12-24T15:56:06.757Z,8.78
2022-12-24T15:58:40.063Z,8.67
2022-12-24T16:01:09.387Z,8.60
2022-12-24T16:03:38.765Z,8.54
2022-12-24T16:06:07.932Z,8.40
2022-12-24T16:08:38.449Z,8.38
2022-12-24T16:11:12.609Z,8.41
2022-12-24T16:13:42.260Z,8.35
2022-12-24T16:16:12.154Z,8.33
2022-12-24T16:18:48.453Z,8.20
2022-12-24T16:21:25.912Z,8.24
2022-12-24T16:23:57.465Z,8.06
2022-12-24T16:26:24.417Z,8.15
2022-12-24T16:28:51.211Z,8.13
2022-12-24T16:31:19.872Z,8.17
2022-12-24T16:33:47.130Z,8.18
2022-12-24T16:36:13.978Z,8.19
2022-12-24T16:39:00.701Z,8.10
2022-12-24T16:41:27.133Z,8.08
2022-12-24T16:43:53.537Z,8.11
2022-12-24T16:46:20.086Z,7.97
2022-12-24T16:48:48.903Z,8.04
2022-12-24T16:51:15.413Z,8.05
2022-12-24T16:53:42.255Z,8.04
2022-12-24T16:56:08.781Z,7.89
2022-12-24T16:58:35.245Z,7.98
2022-12-24T17:01:07.232Z,7.92
2022-12-24T17:03:35.709Z,7.87
2022-12-24T17:06:05.270Z,7.82
2022-12-24T17:08:31.711Z,7.77
2022-12-24T17:10:58.266Z,7.62
2022-12-24T17:13:24.703Z,7.75
2022-12-24T17:15:51.428Z,7.70
2022-12-24T17:18:17.991Z,7.80
2022-12-24T17:20:44.929Z,7.98
2022-12-24T17:23:11.658Z,8.07
2022-12-24T17:25:38.059Z,8.26
2022-12-24T17:28:04.665Z,8.12
2022-12-24T17:30:31.049Z,8.22
2022-12-24T17:32:58.267Z,8.04
2022-12-24T17:35:31.275Z,8.05
2022-12-24T17:37:58.100Z,7.86
2022-12-24T17:40:24.752Z,7.70
2022-12-24T17:42:51.170Z,7.65
2022-12-24T17:45:17.859Z,7.66
2022-12-24T17:47:44.311Z,7.77
2022-12-24T17:50:10.866Z,7.67
2022-12-24T17:52:37.355Z,7.70
2022-12-24T17:55:04.378Z,7.76
2022-12-24T17:57:30.765Z,7.63
2022-12-24T17:59:57.493Z,7.86
2022-12-24T18:02:25.462Z,7.84
2022-12-24T18:04:52.048Z,7.74
2022-12-24T18:07:18.428Z,8.01
2022-12-24T18:09:45.430Z,7.88
2022-12-24T18:12:13.347Z,7.72
2022-12-24T18:14:39.823Z,7.82
2022-12-24T18:17:06.233Z,8.04
2022-12-24T18:19:32.646Z,7.93
2022-12-24T18:21:59.100Z,7.81
2022-12-24T18:24:25.538Z,7.96
2022-12-24T18:26:52.035Z,7.94
2022-12-24T18:29:18.433Z,8.05
2022-12-24T18:31:44.900Z,7.93
2022-12-24T18:34:13.840Z,7.71
2022-12-24T18:36:40.588Z,7.56
2022-12-24T18:39:07.069Z,7.35
2022-12-24T18:41:35.333Z,7.55
2022-12-24T18:44:02.649Z,7.44
2022-12-24T18:46:31.560Z,7.36
2022-12-24T18:49:00.257Z,7.46
2022-12-24T18:51:30.583Z,7.49
2022-12-24T18:53:57.087Z,7.65
2022-12-24T18:56:25.881Z,7.93
2022-12-24T18:58:54.469Z,7.73
2022-12-24T19:01:25.431Z,7.53
2022-12-24T19:03:53.116Z,7.49
2022-12-24T19:06:22.484Z,7.52
2022-12-24T19:08:58.989Z,7.48
2022-12-24T19:11:28.783Z,7.48
2022-12-24T19:13:55.492Z,7.25
2022-12-24T19:16:22.208Z,7.22
2022-12-24T19:18:49.042Z,7.23
2022-12-24T19:21:17.506Z,7.25
2022-12-24T19:23:45.806Z,7.14
2022-12-24T19:26:13.503Z,7.05
2022-12-24T19:28:40.413Z,6.89
2022-12-24T19:31:10.070Z,6.75
2022-12-24T19:33:45.260Z,6.62
2022-12-24T19:36:16.334Z,6.54
2022-12-24T19:38:43.135Z,6.44
2022-12-24T19:41:12.700Z,6.49
2022-12-24T19:43:41.756Z,6.36
2022-12-24T19:46:09.708Z,6.24
2022-12-24T19:48:36.799Z,6.11
2022-12-24T19:51:05.260Z,5.98
2022-12-24T19:53:31.951Z,6.02
2022-12-24T19:55:59.007Z,5.96
2022-12-24T19:58:26.771Z,6.70
2022-12-24T20:00:53.559Z,6.93
2022-12-24T20:03:20.947Z,6.75
2022-12-24T20:05:48.472Z,6.63
2022-12-24T20:08:14.876Z,6.86
2022-12-24T20:10:43.753Z,6.69
2022-12-24T20:13:10.625Z,6.76
2022-12-24T20:15:43.121Z,6.79
2022-12-24T20:18:10.746Z,6.60
2022-12-24T20:20:37.979Z,6.62
2022-12-24T20:23:05.073Z,6.83
2022-12-24T20:25:35.439Z,6.89
2022-12-24T20:28:01.914Z,6.85
2022-12-24T20:30:28.354Z,6.76
2022-12-24T20:32:57.056Z,6.78
2022-12-24T20:35:24.725Z,6.84
2022-12-24T20:37:51.299Z,6.90
2022-12-24T20:40:17.733Z,6.84
2022-12-24T20:42:44.195Z,6.91
2022-12-24T20:45:10.810Z,6.73
2022-12-24T20:47:37.205Z,6.74
2022-12-24T20:50:03.927Z,6.74
2022-12-24T20:52:30.643Z,6.93
2022-12-24T20:54:57.064Z,6.75
2022-12-24T20:57:27.702Z,6.62
2022-12-24T20:59:56.670Z,6.64
2022-12-24T21:02:23.348Z,6.51
2022-12-24T21:04:50.092Z,6.68
2022-12-24T21:07:16.987Z,6.67
2022-12-24T21:09:43.452Z,6.90
2022-12-24T21:12:30.420Z,6.76
2022-12-24T21:14:57.078Z,6.95
2022-12-24T21:17:23.599Z,6.99
2022-12-24T21:19:50.075Z,7.09
2022-12-24T21:22:16.540Z,7.03
2022-12-24T21:24:42.925Z,7.21
2022-12-24T21:27:09.340Z,7.47
2022-12-24T21:29:36.093Z,7.50
2022-12-24T21:32:02.575Z,7.56
2022-12-24T21:34:29.003Z,7.47
2022-12-24T21:36:55.392Z,7.59
2022-12-24T21:39:21.802Z,7.59
2022-12-24T21:41:48.329Z,7.72
2022-12-24T21:44:14.803Z,7.75
2022-12-24T21:46:41.264Z,7.74
2022-12-24T21:49:28.973Z,7.95
2022-12-24T21:51:55.460Z,8.05
2022-12-24T21:54:27.559Z,8.02
2022-12-24T21:57:16.531Z,8.00
2022-12-24T21:59:44.109Z,7.89
2022-12-24T22:02:12.504Z,7.96
2022-12-24T22:04:39.362Z,7.85
2022-12-24T22:07:25.323Z,7.75
2022-12-24T22:10:24.376Z,7.73
2022-12-24T22:12:50.798Z,7.76
2022-12-24T22:15:17.308Z,7.64
2022-12-24T22:17:43.676Z,7.70
2022-12-24T22:20:10.450Z,7.70
2022-12-24T22:22:36.838Z,7.60
2022-12-24T22:25:03.356Z,7.43
2022-12-24T22:27:29.802Z,7.41
2022-12-24T22:29:56.338Z,7.33
2022-12-24T22:32:22.736Z,7.21
2022-12-24T22:34:49.497Z,7.19
2022-12-24T22:37:16.425Z,7.25
2022-12-24T22:39:43.109Z,7.13
2022-12-24T22:42:12.043Z,7.08
2022-12-24T22:44:38.494Z,7.20
2022-12-24T22:47:05.040Z,7.17
2022-12-24T22:49:31.681Z,7.00
2022-12-24T22:51:58.629Z,6.94
2022-12-24T22:54:25.620Z,6.89
2022-12-24T22:56:52.068Z,6.78
2022-12-24T22:59:18.464Z,6.89
2022-12-24T23:01:46.762Z,6.80
2022-12-24T23:04:14.177Z,6.80
2022-12-24T23:06:41.456Z,6.78
2022-12-24T23:09:09.902Z,6.69
2022-12-24T23:11:36.442Z,6.67
2022-12-24T23:14:21.480Z,6.73
2022-12-24T23:16:47.906Z,6.75
2022-12-24T23:19:14.442Z,6.66
2022-12-24T23:21:42.265Z,6.54
2022-12-24T23:24:10.113Z,6.53
2022-12-24T23:26:36.732Z,6.51
2022-12-24T23:29:03.270Z,6.50
2022-12-24T23:31:30.762Z,6.54
2022-12-24T23:33:57.444Z,6.54
2022-12-24T23:36:23.938Z,6.57
2022-12-24T23:38:53.083Z,6.43
2022-12-24T23:41:21.012Z,6.49
2022-12-24T23:43:47.440Z,6.56
2022-12-24T23:46:15.609Z,6.43
2022-12-24T23:48:42.500Z,6.39
2022-12-24T23:51:13.378Z,6.32
2022-12-24T23:53:39.957Z,6.39
2022-12-24T23:56:07.955Z,6.34
2022-12-24T23:58:34.675Z,6.36
